Time;durP1;ratioP1;P1;durP2;ratioP2;P2;SDS_P1;SDS_P2;PMS_P1;PMS_P2;Temp;Humidity;BMP_temperature;BMP_pressure;BME280_temperature;BME280_humidity;BME280_pressure;Samples;Min_cycle;Max_cycle;Signal;HPM_P1;HPM_P2
2022/08/27 00:03:58;;;;;;;;;;;26.20;42.70;;;;;;8434294;28;20284;-41
2022/08/27 00:07:58;;;;;;;;;;;26.20;42.80;;;;;;8434445;28;19936;-41
2022/08/27 00:11:59;;;;;;;;;;;26.20;42.80;;;;;;8433676;28;19923;-41
2022/08/27 00:16:00;;;;;;;;;;;26.20;42.80;;;;;;8434059;28;19920;-41
2022/08/27 00:20:01;;;;;;;;;;;26.20;42.80;;;;;;8433447;28;19916;-41
2022/08/27 00:24:01;;;;;;;;;;;26.20;42.80;;;;;;8433126;28;19973;-41
2022/08/27 00:28:02;;;;;;;;;;;26.20;42.80;;;;;;8433929;28;20329;-41
2022/08/27 00:32:02;;;;;;;;;;;26.20;42.90;;;;;;8433229;28;20271;-41
2022/08/27 00:36:03;;;;;;;;;;;26.20;42.90;;;;;;8433241;28;19922;-41
2022/08/27 00:40:04;;;;;;;;;;;26.20;43.00;;;;;;8433009;28;19938;-41
2022/08/27 00:44:05;;;;;;;;;;;26.20;43.00;;;;;;8432461;28;19916;-41
2022/08/27 00:48:07;;;;;;;;;;;26.20;43.10;;;;;;8432987;28;19928;-41
2022/08/27 00:52:28;;;;;;;;;;;26.20;43.10;;;;;;8432740;28;19962;-41
2022/08/27 00:56:32;;;;;;;;;;;26.20;43.20;;;;;;8432099;28;20291;-41
2022/08/27 01:00:33;;;;;;;;;;;26.20;43.40;;;;;;8432335;28;19916;-41
2022/08/27 01:04:35;;;;;;;;;;;26.10;43.20;;;;;;8432264;28;19935;-41
2022/08/27 01:08:38;;;;;;;;;;;26.10;43.20;;;;;;8430598;28;19924;-41
2022/08/27 01:12:38;;;;;;;;;;;26.20;43.40;;;;;;8432055;28;19916;-41
2022/08/27 01:16:42;;;;;;;;;;;26.20;43.30;;;;;;8431987;28;20002;-41
2022/08/27 01:20:42;;;;;;;;;;;26.10;43.30;;;;;;8431453;28;19920;-41
2022/08/27 01:24:44;;;;;;;;;;;26.10;43.40;;;;;;8431690;28;19971;-41
2022/08/27 01:28:45;;;;;;;;;;;26.10;43.50;;;;;;8431646;28;20291;-41
2022/08/27 01:32:45;;;;;;;;;;;26.10;43.40;;;;;;8430140;28;19916;-41
2022/08/27 01:36:46;;;;;;;;;;;26.10;43.40;;;;;;8431358;28;19916;-41
2022/08/27 01:40:46;;;;;;;;;;;26.10;43.50;;;;;;8431263;28;19916;-41
2022/08/27 01:44:49;;;;;;;;;;;26.10;43.50;;;;;;8430648;28;19916;-42
2022/08/27 01:48:50;;;;;;;;;;;26.10;43.60;;;;;;8431408;28;20387;-41
2022/08/27 01:52:51;;;;;;;;;;;26.10;43.60;;;;;;8430856;28;19920;-41
2022/08/27 01:56:51;;;;;;;;;;;26.10;43.50;;;;;;8430247;28;19916;-41
2022/08/27 02:00:54;;;;;;;;;;;26.10;43.60;;;;;;8430814;28;20359;-41
2022/08/27 02:04:54;;;;;;;;;;;26.10;43.60;;;;;;8430675;28;19920;-41
2022/08/27 02:08:55;;;;;;;;;;;26.10;43.60;;;;;;8430260;28;19927;-41
2022/08/27 02:12:55;;;;;;;;;;;26.10;43.60;;;;;;8430470;28;19951;-41
2022/08/27 02:16:56;;;;;;;;;;;26.00;43.60;;;;;;8430225;28;19927;-41
2022/08/27 02:20:56;;;;;;;;;;;26.10;43.60;;;;;;8429734;28;19916;-41
2022/08/27 02:24:57;;;;;;;;;;;26.00;43.50;;;;;;8430041;28;19961;-41
2022/08/27 02:28:57;;;;;;;;;;;26.00;43.60;;;;;;8430286;28;19927;-41
2022/08/27 02:32:59;;;;;;;;;;;26.00;43.60;;;;;;8429496;28;19920;-41
2022/08/27 02:37:00;;;;;;;;;;;26.00;43.50;;;;;;8430045;28;19924;-41
2022/08/27 02:41:01;;;;;;;;;;;26.00;43.50;;;;;;8429857;28;20440;-41
2022/08/27 02:45:01;;;;;;;;;;;26.00;43.50;;;;;;8435356;28;19916;-41
2022/08/27 02:49:02;;;;;;;;;;;26.00;43.60;;;;;;8437002;28;19942;-41
2022/08/27 02:53:04;;;;;;;;;;;26.00;43.50;;;;;;8436136;28;19924;-41
2022/08/27 02:57:05;;;;;;;;;;;26.00;43.50;;;;;;8436551;28;20007;-41
2022/08/27 03:01:05;;;;;;;;;;;26.00;43.50;;;;;;8436621;28;19916;-41
2022/08/27 03:05:07;;;;;;;;;;;26.00;43.50;;;;;;8435821;28;20011;-41
2022/08/27 03:09:09;;;;;;;;;;;26.00;43.50;;;;;;8436229;28;19974;-41
2022/08/27 03:13:09;;;;;;;;;;;26.00;43.50;;;;;;8436224;28;19916;-41
2022/08/27 03:21:29;;;;;;;;;;;25.90;43.50;;;;;;8436132;28;20013;-41
2022/08/27 03:25:29;;;;;;;;;;;25.90;43.60;;;;;;8435550;28;19920;-41
2022/08/27 03:29:30;;;;;;;;;;;25.90;43.50;;;;;;8435530;28;19931;-41
2022/08/27 03:33:32;;;;;;;;;;;25.90;43.50;;;;;;8435496;28;19920;-41
2022/08/27 03:37:32;;;;;;;;;;;25.90;43.50;;;;;;8435360;28;19916;-41
2022/08/27 03:41:33;;;;;;;;;;;25.90;43.50;;;;;;8434617;28;19962;-41
2022/08/27 03:45:33;;;;;;;;;;;25.90;43.50;;;;;;8434978;28;19916;-41
2022/08/27 03:49:34;;;;;;;;;;;25.90;43.50;;;;;;8434868;28;19955;-41
2022/08/27 03:53:35;;;;;;;;;;;25.90;43.50;;;;;;8433282;28;19916;-41
2022/08/27 03:57:35;;;;;;;;;;;25.90;43.60;;;;;;8434719;28;20011;-43
2022/08/27 04:01:35;;;;;;;;;;;25.90;43.60;;;;;;8434322;28;19970;-43
2022/08/27 04:05:36;;;;;;;;;;;25.90;43.60;;;;;;8413314;28;19920;-41
2022/08/27 04:09:36;;;;;;;;;;;25.90;43.50;;;;;;8434334;28;19920;-41
2022/08/27 04:13:37;;;;;;;;;;;25.90;43.60;;;;;;8434193;28;19924;-41
2022/08/27 04:17:38;;;;;;;;;;;25.90;43.60;;;;;;8433368;28;19999;-41
2022/08/27 04:21:39;;;;;;;;;;;25.90;43.50;;;;;;8433853;28;19916;-41
2022/08/27 04:25:40;;;;;;;;;;;25.80;43.50;;;;;;8433793;28;19939;-41
2022/08/27 04:29:41;;;;;;;;;;;25.80;43.50;;;;;;8433257;28;19950;-41
2022/08/27 04:33:42;;;;;;;;;;;25.80;44.00;;;;;;8433463;28;20356;-42
2022/08/27 04:37:42;;;;;;;;;;;25.80;43.50;;;;;;8433368;28;20334;-41
2022/08/27 04:41:42;;;;;;;;;;;25.80;43.50;;;;;;8432505;28;19916;-41
2022/08/27 04:45:44;;;;;;;;;;;25.80;43.50;;;;;;8432986;28;20003;-41
2022/08/27 04:49:44;;;;;;;;;;;25.80;43.50;;;;;;8432799;28;19960;-41
2022/08/27 04:53:45;;;;;;;;;;;25.80;43.50;;;;;;8432232;28;19920;-41
2022/08/27 04:57:46;;;;;;;;;;;25.80;43.50;;;;;;8432354;28;19927;-41
2022/08/27 05:01:47;;;;;;;;;;;25.80;43.50;;;;;;8432197;28;19970;-41
2022/08/27 05:05:48;;;;;;;;;;;25.80;43.50;;;;;;8431679;28;19943;-41
2022/08/27 05:09:48;;;;;;;;;;;25.80;43.50;;;;;;8432270;28;19921;-41
2022/08/27 05:13:49;;;;;;;;;;;25.80;43.50;;;;;;8431852;28;19962;-41
2022/08/27 05:17:49;;;;;;;;;;;25.80;43.50;;;;;;8431240;28;19920;-41
2022/08/27 05:21:51;;;;;;;;;;;25.80;43.60;;;;;;8431680;28;20025;-41
2022/08/27 05:25:52;;;;;;;;;;;25.80;43.50;;;;;;8431628;28;19931;-41
2022/08/27 05:29:54;;;;;;;;;;;25.70;43.50;;;;;;8431027;28;19965;-41
2022/08/27 05:33:55;;;;;;;;;;;25.80;43.50;;;;;;8431205;28;19924;-41
2022/08/27 05:37:56;;;;;;;;;;;25.70;43.50;;;;;;8431335;28;20292;-41
2022/08/27 05:41:56;;;;;;;;;;;25.80;43.60;;;;;;8431051;28;19922;-41
2022/08/27 05:45:57;;;;;;;;;;;25.80;43.60;;;;;;8431292;28;19962;-41
2022/08/27 05:49:57;;;;;;;;;;;25.80;43.50;;;;;;8431304;28;19927;-41
2022/08/27 05:54:05;;;;;;;;;;;25.70;43.50;;;;;;8430158;28;19947;-41
2022/08/27 05:58:07;;;;;;;;;;;25.70;43.50;;;;;;8430684;28;19916;-41
2022/08/27 06:02:07;;;;;;;;;;;25.70;43.50;;;;;;8429987;28;19923;-41
2022/08/27 06:06:09;;;;;;;;;;;25.80;43.50;;;;;;8430780;28;20323;-41
2022/08/27 06:10:10;;;;;;;;;;;25.70;43.50;;;;;;8430423;28;19927;-41
2022/08/27 06:14:11;;;;;;;;;;;25.80;43.50;;;;;;8429843;28;19999;-41
2022/08/27 06:18:12;;;;;;;;;;;25.80;43.50;;;;;;8430131;28;19958;-41
2022/08/27 06:22:13;;;;;;;;;;;25.80;43.50;;;;;;8430033;28;19916;-41
2022/08/27 06:26:15;;;;;;;;;;;25.70;43.40;;;;;;8411591;28;19948;-41
2022/08/27 06:30:15;;;;;;;;;;;25.80;43.50;;;;;;8430340;28;20364;-42
2022/08/27 06:34:16;;;;;;;;;;;25.80;43.50;;;;;;8429945;28;19927;-41
2022/08/27 06:38:17;;;;;;;;;;;25.80;43.40;;;;;;8429287;28;19926;-42
2022/08/27 06:42:17;;;;;;;;;;;25.70;43.40;;;;;;8429951;28;19920;-42
2022/08/27 06:46:19;;;;;;;;;;;25.80;43.40;;;;;;8429737;28;20365;-43
2022/08/27 06:50:19;;;;;;;;;;;25.70;43.40;;;;;;8429242;28;19927;-42
2022/08/27 06:54:20;;;;;;;;;;;25.80;43.40;;;;;;8411502;28;19916;-42
2022/08/27 06:58:20;;;;;;;;;;;25.80;43.50;;;;;;8429746;28;20203;-42
2022/08/27 07:02:21;;;;;;;;;;;25.80;43.40;;;;;;8428985;28;20012;-41
2022/08/27 07:06:22;;;;;;;;;;;25.80;43.50;;;;;;8429965;28;19920;-42
2022/08/27 07:10:23;;;;;;;;;;;25.80;43.40;;;;;;8428329;28;19969;-42
2022/08/27 07:14:24;;;;;;;;;;;25.80;43.40;;;;;;8428675;28;20321;-41
2022/08/27 07:18:24;;;;;;;;;;;25.80;43.40;;;;;;8429516;28;19916;-42
2022/08/27 07:22:25;;;;;;;;;;;25.80;43.40;;;;;;8429149;28;19917;-41
2022/08/27 07:26:26;;;;;;;;;;;25.80;43.40;;;;;;8428625;28;20351;-42
2022/08/27 07:30:27;;;;;;;;;;;25.80;43.40;;;;;;8431817;28;19928;-41
2022/08/27 07:34:28;;;;;;;;;;;25.80;43.40;;;;;;8417477;28;20318;-42
2022/08/27 07:38:28;;;;;;;;;;;25.80;43.40;;;;;;8434790;28;19946;-41
2022/08/27 07:47:05;;;;;;;;;;;25.80;43.40;;;;;;8361087;28;19923;-43
2022/08/27 07:51:12;;;;;;;;;;;25.80;43.30;;;;;;8435250;28;20285;-42
2022/08/27 07:55:13;;;;;;;;;;;25.90;43.40;;;;;;8434601;28;19968;-42
2022/08/27 07:59:13;;;;;;;;;;;25.90;43.40;;;;;;8434234;28;20364;-42
2022/08/27 08:03:14;;;;;;;;;;;25.90;43.30;;;;;;8434343;28;20399;-42
2022/08/27 08:07:14;;;;;;;;;;;25.90;43.30;;;;;;8434082;28;20386;-42
2022/08/27 08:11:15;;;;;;;;;;;25.90;43.80;;;;;;8415676;28;20406;-42
2022/08/27 08:15:16;;;;;;;;;;;25.90;43.30;;;;;;8434226;28;20292;-42
2022/08/27 08:19:17;;;;;;;;;;;25.90;43.30;;;;;;8415798;28;19920;-42
2022/08/27 08:23:17;;;;;;;;;;;25.90;43.30;;;;;;8433359;28;20296;-43
2022/08/27 08:27:19;;;;;;;;;;;25.90;43.30;;;;;;8433956;28;20269;-42
2022/08/27 08:31:20;;;;;;;;;;;26.00;43.30;;;;;;8433808;28;19916;-42
2022/08/27 08:35:20;;;;;;;;;;;25.90;43.20;;;;;;8432565;28;19923;-41
2022/08/27 08:39:21;;;;;;;;;;;25.90;43.30;;;;;;8432996;28;20292;-41
2022/08/27 08:43:24;;;;;;;;;;;25.90;43.30;;;;;;8432527;28;20300;-41
2022/08/27 08:47:31;;;;;;;;;;;25.90;43.30;;;;;;8432267;28;19934;-42
2022/08/27 08:51:35;;;;;;;;;;;26.00;43.40;;;;;;8432859;28;19920;-42
2022/08/27 08:55:40;;;;;;;;;;;25.90;43.30;;;;;;8432557;28;19987;-41
2022/08/27 08:59:43;;;;;;;;;;;26.00;43.30;;;;;;8431788;28;19922;-41
2022/08/27 09:03:48;;;;;;;;;;;26.00;43.40;;;;;;8432290;28;19923;-42
2022/08/27 09:08:12;;;;;;;;;;;26.00;43.30;;;;;;8432441;28;19924;-42
2022/08/27 09:12:17;;;;;;;;;;;25.90;43.40;;;;;;8431940;28;20397;-41
2022/08/27 09:16:18;;;;;;;;;;;26.00;43.40;;;;;;8432222;28;19923;-41
2022/08/27 09:20:20;;;;;;;;;;;25.90;43.30;;;;;;8431611;28;20299;-42
2022/08/27 09:24:25;;;;;;;;;;;25.90;43.30;;;;;;8432174;28;19938;-42
2022/08/27 09:32:54;;;;;;;;;;;26.00;43.40;;;;;;8430911;28;20291;-41
2022/08/27 09:36:58;;;;;;;;;;;26.00;43.30;;;;;;8431659;28;19920;-41
2022/08/27 09:41:01;;;;;;;;;;;26.00;43.30;;;;;;8430998;28;19924;-41
2022/08/27 09:45:09;;;;;;;;;;;26.00;43.30;;;;;;8430806;28;19920;-41
2022/08/27 09:49:10;;;;;;;;;;;26.00;43.30;;;;;;8431027;28;20357;-42
2022/08/27 09:53:25;;;;;;;;;;;26.00;43.30;;;;;;8429639;28;20372;-42
2022/08/27 09:57:32;;;;;;;;;;;26.00;43.30;;;;;;8431315;28;20364;-41
2022/08/27 10:01:35;;;;;;;;;;;26.00;43.30;;;;;;8429488;28;19958;-42
2022/08/27 10:05:38;;;;;;;;;;;26.00;43.30;;;;;;8430203;28;19923;-42
2022/08/27 10:09:41;;;;;;;;;;;26.00;43.20;;;;;;8430275;28;20337;-42
2022/08/27 10:13:53;;;;;;;;;;;26.00;43.80;;;;;;8430244;28;20272;-42
2022/08/27 10:18:06;;;;;;;;;;;26.00;43.30;;;;;;8429720;28;20365;-43
2022/08/27 10:22:21;;;;;;;;;;;26.10;43.30;;;;;;8412302;28;19916;-42
2022/08/27 10:26:25;;;;;;;;;;;26.10;43.20;;;;;;8429443;28;19924;-41
2022/08/27 10:30:34;;;;;;;;;;;26.10;43.30;;;;;;8411868;28;19969;-41
2022/08/27 10:34:40;;;;;;;;;;;26.10;43.10;;;;;;8411804;28;19912;-40
2022/08/27 10:39:07;;;;;;;;;;;26.20;43.20;;;;;;8411295;28;19931;-42
2022/08/27 10:43:07;;;;;;;;;;;26.20;43.20;;;;;;8390897;28;19913;-42
2022/08/27 10:47:21;;;;;;;;;;;26.20;43.20;;;;;;8411125;28;20416;-41
2022/08/27 10:51:30;;;;;;;;;;;26.20;43.10;;;;;;8436998;28;19920;-41
2022/08/27 10:55:39;;;;;;;;;;;26.20;43.10;;;;;;8429746;28;19963;-42
2022/08/27 10:59:52;;;;;;;;;;;26.30;43.00;;;;;;8430081;28;19916;-42
2022/08/27 11:03:59;;;;;;;;;;;26.30;43.00;;;;;;8431353;28;20417;-42
2022/08/27 11:08:21;;;;;;;;;;;26.30;43.00;;;;;;8417893;28;20299;-42
2022/08/27 11:12:27;;;;;;;;;;;26.40;43.00;;;;;;8436458;28;19920;-42
2022/08/27 11:16:33;;;;;;;;;;;26.40;42.90;;;;;;8417819;28;19920;-41
2022/08/27 11:20:48;;;;;;;;;;;26.40;42.90;;;;;;8435144;28;19922;-42
2022/08/27 11:25:08;;;;;;;;;;;26.40;42.90;;;;;;8435748;28;20261;-42
2022/08/27 11:29:23;;;;;;;;;;;26.40;42.90;;;;;;8434602;28;19931;-42
2022/08/27 11:33:31;;;;;;;;;;;26.40;42.90;;;;;;8435601;28;19916;-42
2022/08/27 11:37:52;;;;;;;;;;;26.40;42.90;;;;;;8417230;28;20299;-43
2022/08/27 11:42:13;;;;;;;;;;;26.40;43.00;;;;;;8434626;28;19924;-42
2022/08/27 11:46:20;;;;;;;;;;;26.40;43.00;;;;;;8435007;28;19974;-42
2022/08/27 11:50:24;;;;;;;;;;;26.40;43.00;;;;;;8433705;28;21364;-42
2022/08/27 11:54:30;;;;;;;;;;;26.40;43.10;;;;;;8434952;28;19923;-43
2022/08/27 11:58:32;;;;;;;;;;;26.40;43.20;;;;;;8434373;28;19919;-45
2022/08/27 12:02:33;;;;;;;;;;;26.40;43.20;;;;;;8434192;28;19912;-45
2022/08/27 12:06:43;;;;;;;;;;;26.40;43.20;;;;;;8434438;28;20006;-43
2022/08/27 12:10:53;;;;;;;;;;;26.40;43.20;;;;;;8434255;28;19924;-43
2022/08/27 12:14:54;;;;;;;;;;;26.30;43.20;;;;;;8432962;28;19920;-40
2022/08/27 12:18:59;;;;;;;;;;;26.30;43.20;;;;;;8433943;28;20383;-43
2022/08/27 12:27:37;;;;;;;;;;;26.30;43.20;;;;;;8433898;28;19932;-41
2022/08/27 12:31:40;;;;;;;;;;;26.30;43.20;;;;;;8433362;28;20008;-42
2022/08/27 12:35:43;;;;;;;;;;;26.40;43.30;;;;;;8433089;28;19948;-42
2022/08/27 12:39:48;;;;;;;;;;;26.30;43.20;;;;;;8433209;28;20325;-42
2022/08/27 12:43:48;;;;;;;;;;;26.30;43.20;;;;;;8433272;28;19916;-41
2022/08/27 12:47:49;;;;;;;;;;;26.40;43.30;;;;;;8432626;28;19924;-42
2022/08/27 12:51:50;;;;;;;;;;;26.40;43.20;;;;;;8433178;28;19951;-42
2022/08/27 12:56:00;;;;;;;;;;;26.40;43.20;;;;;;8432801;28;19990;-42
2022/08/27 13:00:08;;;;;;;;;;;26.40;43.20;;;;;;8432130;28;19916;-41
2022/08/27 13:04:16;;;;;;;;;;;26.40;43.20;;;;;;8432605;28;20321;-41
2022/08/27 13:08:19;;;;;;;;;;;26.40;43.20;;;;;;8432144;28;20038;-41
2022/08/27 13:12:22;;;;;;;;;;;26.40;43.30;;;;;;8431555;28;19916;-42
2022/08/27 13:16:23;;;;;;;;;;;26.40;43.20;;;;;;8431817;28;19927;-42
2022/08/27 13:20:24;;;;;;;;;;;26.40;43.30;;;;;;8431263;28;19920;-42
2022/08/27 13:24:33;;;;;;;;;;;26.40;43.30;;;;;;8431851;28;19938;-42
2022/08/27 13:28:34;;;;;;;;;;;26.40;43.30;;;;;;8430931;28;20303;-42
2022/08/27 13:32:36;;;;;;;;;;;26.40;43.20;;;;;;8431146;28;20330;-41
2022/08/27 13:36:49;;;;;;;;;;;26.40;43.20;;;;;;8430230;28;20312;-42
2022/08/27 13:40:55;;;;;;;;;;;26.40;43.50;;;;;;8431155;28;19912;-42
2022/08/27 13:45:00;;;;;;;;;;;26.30;43.90;;;;;;8430645;28;20026;-42
2022/08/27 13:49:00;;;;;;;;;;;26.20;46.70;;;;;;8429289;28;20369;-43
2022/08/27 13:57:38;;;;;;;;;;;26.20;45.40;;;;;;8427302;28;19988;-43
2022/08/27 14:01:57;;;;;;;;;;;26.30;45.20;;;;;;8409188;28;20293;-43
2022/08/27 14:05:58;;;;;;;;;;;26.30;45.10;;;;;;8429256;28;19950;-44
2022/08/27 14:10:07;;;;;;;;;;;26.40;45.00;;;;;;8430332;28;19977;-43
2022/08/27 14:14:08;;;;;;;;;;;26.40;44.80;;;;;;8429943;28;20011;-43
2022/08/27 14:18:29;;;;;;;;;;;26.40;45.20;;;;;;8430427;28;20223;-41
2022/08/27 14:22:29;;;;;;;;;;;26.40;44.50;;;;;;8430203;28;19920;-42
2022/08/27 14:26:30;;;;;;;;;;;26.50;44.40;;;;;;8429650;28;19966;-42
2022/08/27 14:30:30;;;;;;;;;;;26.50;44.40;;;;;;8430167;28;19981;-41
2022/08/27 14:34:30;;;;;;;;;;;26.50;44.30;;;;;;8429840;28;19916;-42
2022/08/27 14:38:32;;;;;;;;;;;26.50;44.20;;;;;;8429429;28;19951;-42
2022/08/27 14:42:33;;;;;;;;;;;26.50;44.20;;;;;;8429967;28;19966;-42
2022/08/27 14:46:35;;;;;;;;;;;26.50;44.10;;;;;;8429737;28;20372;-42
2022/08/27 14:50:36;;;;;;;;;;;26.40;44.00;;;;;;8429181;28;20005;-42
2022/08/27 14:54:37;;;;;;;;;;;26.50;44.00;;;;;;8429824;28;19912;-43
2022/08/27 14:58:38;;;;;;;;;;;26.40;44.00;;;;;;8429863;28;19919;-42
2022/08/27 15:02:43;;;;;;;;;;;26.50;44.00;;;;;;8429063;28;20384;-42
2022/08/27 15:06:43;;;;;;;;;;;26.50;44.00;;;;;;8429510;28;19924;-43
2022/08/27 15:10:44;;;;;;;;;;;26.40;44.00;;;;;;8429464;28;19924;-43
2022/08/27 15:14:44;;;;;;;;;;;26.50;44.00;;;;;;8428784;28;19920;-43
2022/08/27 15:18:45;;;;;;;;;;;26.40;44.00;;;;;;8429596;28;19928;-43
2022/08/27 15:22:46;;;;;;;;;;;26.40;44.00;;;;;;8429227;28;19923;-42
2022/08/27 15:26:47;;;;;;;;;;;26.40;43.90;;;;;;8428673;28;19993;-42
2022/08/27 15:30:47;;;;;;;;;;;26.40;43.90;;;;;;8429303;28;20373;-43
2022/08/27 15:34:48;;;;;;;;;;;26.50;44.00;;;;;;8429305;28;19931;-42
2022/08/27 15:38:48;;;;;;;;;;;26.40;43.90;;;;;;8428751;28;19948;-42
2022/08/27 15:42:52;;;;;;;;;;;26.40;43.90;;;;;;8428838;28;19917;-42
2022/08/27 15:46:52;;;;;;;;;;;26.40;43.90;;;;;;8428944;28;19916;-42
2022/08/27 15:50:53;;;;;;;;;;;26.40;43.90;;;;;;8430169;28;19925;-42
2022/08/27 15:54:54;;;;;;;;;;;26.40;43.90;;;;;;8434820;28;19998;-42
2022/08/27 15:58:54;;;;;;;;;;;26.40;43.90;;;;;;8434702;28;19920;-42
2022/08/27 16:02:55;;;;;;;;;;;26.40;43.90;;;;;;8433945;28;20291;-42
2022/08/27 16:06:56;;;;;;;;;;;26.30;43.90;;;;;;8433517;28;19916;-42
2022/08/27 16:10:57;;;;;;;;;;;26.40;43.90;;;;;;8434110;28;19927;-43
2022/08/27 16:14:57;;;;;;;;;;;26.40;43.90;;;;;;8434065;28;20019;-42
2022/08/27 16:19:01;;;;;;;;;;;26.30;44.40;;;;;;8434099;28;19927;-44
2022/08/27 16:23:02;;;;;;;;;;;26.30;43.90;;;;;;8433357;28;19916;-42
2022/08/27 16:27:02;;;;;;;;;;;26.30;43.80;;;;;;8433609;28;20393;-42
2022/08/27 16:31:04;;;;;;;;;;;26.30;43.90;;;;;;8433807;28;20296;-43
2022/08/27 16:35:07;;;;;;;;;;;26.30;43.90;;;;;;8409151;28;20019;-44
2022/08/27 16:39:07;;;;;;;;;;;26.30;44.10;;;;;;8432981;28;19916;-44
2022/08/27 16:43:11;;;;;;;;;;;26.20;44.10;;;;;;8432896;28;19924;-41
2022/08/27 16:47:11;;;;;;;;;;;26.30;44.40;;;;;;8431902;28;19927;-42
2022/08/27 16:51:16;;;;;;;;;;;26.20;44.70;;;;;;8432938;28;19924;-42
2022/08/27 16:55:17;;;;;;;;;;;26.30;44.80;;;;;;8433094;28;19940;-44
2022/08/27 16:59:18;;;;;;;;;;;26.30;45.00;;;;;;8432568;28;19968;-42
2022/08/27 17:03:19;;;;;;;;;;;26.30;45.00;;;;;;8431947;28;19928;-42
2022/08/27 17:07:22;;;;;;;;;;;26.30;45.20;;;;;;8432494;28;19916;-43
2022/08/27 17:11:25;;;;;;;;;;;26.30;45.20;;;;;;8431718;28;19932;-44
2022/08/27 17:15:26;;;;;;;;;;;26.30;45.40;;;;;;8421833;28;20020;-43
2022/08/27 17:19:26;;;;;;;;;;;26.30;45.60;;;;;;8415518;28;20377;-43
2022/08/27 17:23:30;;;;;;;;;;;26.40;45.70;;;;;;8397846;28;19916;-45
2022/08/27 17:27:31;;;;;;;;;;;26.30;45.80;;;;;;8398110;28;19920;-43
2022/08/27 17:31:34;;;;;;;;;;;26.30;45.80;;;;;;8398035;28;19916;-44
2022/08/27 17:35:35;;;;;;;;;;;26.40;46.00;;;;;;8397626;28;19916;-44
2022/08/27 17:39:35;;;;;;;;;;;26.40;46.00;;;;;;8398404;28;19940;-45
2022/08/27 17:43:36;;;;;;;;;;;26.40;46.10;;;;;;8397687;28;19924;-45
2022/08/27 17:47:36;;;;;;;;;;;26.40;46.10;;;;;;8396896;28;19932;-45
2022/08/27 17:51:36;;;;;;;;;;;26.40;46.10;;;;;;8402998;28;19924;-45
2022/08/27 17:55:37;;;;;;;;;;;26.40;46.10;;;;;;8397767;28;19912;-43
2022/08/27 17:59:38;;;;;;;;;;;26.40;46.10;;;;;;8397131;28;20368;-43
2022/08/27 18:03:39;;;;;;;;;;;26.40;46.10;;;;;;8397254;28;19995;-44
2022/08/27 18:07:40;;;;;;;;;;;26.30;45.80;;;;;;8396994;28;20007;-43
2022/08/27 18:11:41;;;;;;;;;;;26.40;45.80;;;;;;8396094;28;19920;-43
2022/08/27 18:15:41;;;;;;;;;;;26.40;45.80;;;;;;8406582;28;19934;-44
2022/08/27 18:19:42;;;;;;;;;;;26.40;45.70;;;;;;8428964;28;19935;-44
2022/08/27 18:23:42;;;;;;;;;;;26.30;45.60;;;;;;8428976;28;19928;-43
2022/08/27 18:27:43;;;;;;;;;;;26.40;45.90;;;;;;8429363;28;19939;-43
2022/08/27 18:31:44;;;;;;;;;;;26.30;45.10;;;;;;8429987;28;19952;-43
2022/08/27 18:35:44;;;;;;;;;;;26.30;45.20;;;;;;8429718;28;19919;-43
2022/08/27 18:39:45;;;;;;;;;;;26.30;45.10;;;;;;8430167;28;19916;-43
2022/08/27 18:43:46;;;;;;;;;;;26.30;45.10;;;;;;8429713;28;19916;-43
2022/08/27 18:47:46;;;;;;;;;;;26.30;45.10;;;;;;8429181;28;20190;-43
2022/08/27 18:51:49;;;;;;;;;;;26.30;45.00;;;;;;8429570;28;19960;-43
2022/08/27 18:55:50;;;;;;;;;;;26.30;45.00;;;;;;8429953;28;19918;-43
2022/08/27 18:59:50;;;;;;;;;;;26.30;45.00;;;;;;8428989;28;19981;-42
2022/08/27 19:03:52;;;;;;;;;;;26.20;44.90;;;;;;8429586;28;19916;-43
2022/08/27 19:07:54;;;;;;;;;;;26.20;44.90;;;;;;8428200;28;20350;-43
2022/08/27 19:11:54;;;;;;;;;;;26.20;44.90;;;;;;8428851;28;20384;-42
2022/08/27 19:15:57;;;;;;;;;;;26.20;44.90;;;;;;8411392;28;19920;-42
2022/08/27 19:19:58;;;;;;;;;;;26.20;44.90;;;;;;8429330;28;20053;-42
2022/08/27 19:23:59;;;;;;;;;;;26.20;44.90;;;;;;8429346;28;19917;-42
2022/08/27 19:27:59;;;;;;;;;;;26.20;44.80;;;;;;8436051;28;20369;-45
2022/08/27 19:32:00;;;;;;;;;;;26.20;44.80;;;;;;8435921;28;20006;-43
2022/08/27 19:36:00;;;;;;;;;;;26.20;44.80;;;;;;8435015;28;19912;-43
2022/08/27 19:40:01;;;;;;;;;;;26.20;44.80;;;;;;8416938;28;19990;-44
2022/08/27 19:44:02;;;;;;;;;;;26.20;44.80;;;;;;8435254;28;19916;-44
2022/08/27 19:48:02;;;;;;;;;;;26.10;44.70;;;;;;8434659;28;19947;-43
2022/08/27 19:52:03;;;;;;;;;;;26.10;44.70;;;;;;8416622;28;19928;-44
2022/08/27 19:56:04;;;;;;;;;;;26.10;44.70;;;;;;8434586;28;19912;-43
2022/08/27 20:00:06;;;;;;;;;;;26.10;44.80;;;;;;8435023;28;19916;-42
2022/08/27 20:04:06;;;;;;;;;;;26.10;44.70;;;;;;8434505;28;19920;-43
2022/08/27 20:08:07;;;;;;;;;;;26.10;45.30;;;;;;8415674;28;19924;-43
2022/08/27 20:12:08;;;;;;;;;;;26.10;44.70;;;;;;8434190;28;20376;-43
2022/08/27 20:16:09;;;;;;;;;;;26.10;44.70;;;;;;8434509;28;19999;-43
2022/08/27 20:20:09;;;;;;;;;;;26.10;44.70;;;;;;8433005;28;19923;-43
2022/08/27 20:24:10;;;;;;;;;;;26.10;44.80;;;;;;8433690;28;19916;-42
2022/08/27 20:28:11;;;;;;;;;;;26.00;44.70;;;;;;8433663;28;19947;-43
2022/08/27 20:32:12;;;;;;;;;;;26.00;44.60;;;;;;8433059;28;20002;-43
2022/08/27 20:36:13;;;;;;;;;;;26.00;44.60;;;;;;8433227;28;19916;-44
2022/08/27 20:40:15;;;;;;;;;;;26.00;44.70;;;;;;8433452;28;19916;-43
2022/08/27 20:44:16;;;;;;;;;;;26.00;44.60;;;;;;8432679;28;19920;-43
2022/08/27 20:48:16;;;;;;;;;;;26.00;44.60;;;;;;8433135;28;20014;-43
2022/08/27 20:52:18;;;;;;;;;;;26.00;44.60;;;;;;8432956;28;20388;-42
2022/08/27 20:56:18;;;;;;;;;;;26.00;44.70;;;;;;8432677;28;19916;-44
2022/08/27 21:00:19;;;;;;;;;;;26.00;44.60;;;;;;8432669;28;20482;-41
2022/08/27 21:04:19;;;;;;;;;;;26.00;44.70;;;;;;8432529;28;20278;-42
2022/08/27 21:08:20;;;;;;;;;;;25.90;44.60;;;;;;8431882;28;19920;-43
2022/08/27 21:12:21;;;;;;;;;;;25.90;44.60;;;;;;8432585;28;20011;-43
2022/08/27 21:16:21;;;;;;;;;;;25.90;44.60;;;;;;8432398;28;19951;-43
2022/08/27 21:20:22;;;;;;;;;;;25.90;44.60;;;;;;8413571;28;19924;-44
2022/08/27 21:24:22;;;;;;;;;;;26.00;44.60;;;;;;8432117;28;19972;-42
2022/08/27 21:28:23;;;;;;;;;;;25.90;44.60;;;;;;8431758;28;19969;-43
2022/08/27 21:32:23;;;;;;;;;;;25.90;44.60;;;;;;8413153;28;19969;-42
2022/08/27 21:36:24;;;;;;;;;;;25.90;44.60;;;;;;8413676;28;20372;-44
2022/08/27 21:40:26;;;;;;;;;;;25.90;44.60;;;;;;8412565;28;19916;-44
2022/08/27 21:44:28;;;;;;;;;;;25.90;44.60;;;;;;8430846;28;19962;-41
2022/08/27 21:48:28;;;;;;;;;;;25.90;44.60;;;;;;8429951;28;20288;-43
2022/08/27 21:52:29;;;;;;;;;;;25.90;44.60;;;;;;8430972;28;19916;-42
2022/08/27 21:56:30;;;;;;;;;;;25.80;44.50;;;;;;8430733;28;19931;-43
2022/08/27 22:00:35;;;;;;;;;;;25.80;44.50;;;;;;8433138;28;19922;-42
2022/08/27 22:04:36;;;;;;;;;;;25.80;44.50;;;;;;8445387;28;19912;-42
2022/08/27 22:08:38;;;;;;;;;;;25.80;44.50;;;;;;8429036;28;19924;-43
2022/08/27 22:12:39;;;;;;;;;;;25.80;44.50;;;;;;8430713;28;20046;-42
2022/08/27 22:16:39;;;;;;;;;;;25.80;44.50;;;;;;8430540;28;19927;-43
2022/08/27 22:20:40;;;;;;;;;;;25.80;44.50;;;;;;8429908;28;20412;-42
2022/08/27 22:24:41;;;;;;;;;;;25.80;44.50;;;;;;8430297;28;19997;-43
2022/08/27 22:28:41;;;;;;;;;;;25.80;44.50;;;;;;8430007;28;19920;-43
2022/08/27 22:32:42;;;;;;;;;;;25.80;44.50;;;;;;8429636;28;20303;-42
2022/08/27 22:36:42;;;;;;;;;;;25.70;44.40;;;;;;8430304;28;19969;-42
2022/08/27 22:40:43;;;;;;;;;;;25.80;44.50;;;;;;8430068;28;19920;-43
2022/08/27 22:44:43;;;;;;;;;;;25.80;44.50;;;;;;8429414;28;20318;-42
2022/08/27 22:48:44;;;;;;;;;;;25.70;44.40;;;;;;8429666;28;19920;-42
2022/08/27 22:52:45;;;;;;;;;;;25.80;44.50;;;;;;8429582;28;19922;-43
2022/08/27 22:56:45;;;;;;;;;;;25.70;44.40;;;;;;8429247;28;20303;-42
2022/08/27 23:00:46;;;;;;;;;;;25.70;44.40;;;;;;8433299;28;19999;-41
2022/08/27 23:04:47;;;;;;;;;;;25.70;44.50;;;;;;8436336;28;19912;-42
2022/08/27 23:08:47;;;;;;;;;;;25.70;44.40;;;;;;8435673;28;20009;-42
2022/08/27 23:12:48;;;;;;;;;;;25.70;44.40;;;;;;8436392;28;19938;-47
2022/08/27 23:16:49;;;;;;;;;;;25.70;44.40;;;;;;8436224;28;20244;-42
2022/08/27 23:20:50;;;;;;;;;;;25.70;44.40;;;;;;8435394;28;19916;-42
2022/08/27 23:29:10;;;;;;;;;;;25.70;44.40;;;;;;8437627;28;19997;-42
2022/08/27 23:33:11;;;;;;;;;;;25.60;44.40;;;;;;8435481;28;20437;-42
2022/08/27 23:37:12;;;;;;;;;;;25.70;44.40;;;;;;8435570;28;19912;-43
2022/08/27 23:41:15;;;;;;;;;;;25.60;44.30;;;;;;8434855;28;19939;-42
2022/08/27 23:45:19;;;;;;;;;;;25.60;44.30;;;;;;8435367;28;19939;-43
2022/08/27 23:49:20;;;;;;;;;;;25.60;44.40;;;;;;8435134;28;19924;-42
2022/08/27 23:53:21;;;;;;;;;;;25.60;44.40;;;;;;8434510;28;19919;-43
2022/08/27 23:57:21;;;;;;;;;;;25.60;44.40;;;;;;8435161;28;19912;-45
